Time;durP1;ratioP1;P1;durP2;ratioP2;P2;SDS_P1;SDS_P2;PMS_P1;PMS_P2;Temp;Humidity;BMP_temperature;BMP_pressure;BME280_temperature;BME280_humidity;BME280_pressure;Samples;Min_cycle;Max_cycle;Signal;HPM_P1;HPM_P2
2021/09/18 00:01:50;;;;;;;;;;;17.00;99.90;;;;;;5032629;28;19941;-77
2021/09/18 00:04:16;;;;;;;;;;;17.00;99.90;;;;;;5032147;28;19916;-77
2021/09/18 00:06:41;;;;;;;;;;;17.10;99.90;;;;;;5033800;28;19909;-77
2021/09/18 00:09:07;;;;;;;;;;;17.10;99.90;;;;;;5032292;28;19984;-77
2021/09/18 00:11:32;;;;;;;;;;;17.10;99.90;;;;;;5033810;28;20287;-77
2021/09/18 00:13:58;;;;;;;;;;;17.10;99.90;;;;;;5033614;28;19909;-77
2021/09/18 00:16:23;;;;;;;;;;;17.10;99.90;;;;;;5033596;28;19923;-77
2021/09/18 00:18:49;;;;;;;;;;;17.10;99.90;;;;;;5033606;28;20297;-77
2021/09/18 00:21:14;;;;;;;;;;;17.20;99.90;;;;;;5034108;28;19913;-77
2021/09/18 00:23:40;;;;;;;;;;;17.20;99.90;;;;;;5032355;28;19917;-77
2021/09/18 00:26:06;;;;;;;;;;;17.20;99.90;;;;;;5034140;28;19913;-77
2021/09/18 00:28:31;;;;;;;;;;;17.30;99.90;;;;;;5033644;28;19921;-77
2021/09/18 00:30:57;;;;;;;;;;;17.30;99.90;;;;;;5032446;28;19913;-77
2021/09/18 00:33:22;;;;;;;;;;;17.30;99.90;;;;;;5032324;28;19943;-77
2021/09/18 00:35:48;;;;;;;;;;;17.40;99.90;;;;;;5032591;28;19913;-77
2021/09/18 00:38:14;;;;;;;;;;;17.40;99.90;;;;;;5033518;28;19920;-77
2021/09/18 00:40:40;;;;;;;;;;;17.40;99.90;;;;;;5032286;28;20016;-77
2021/09/18 00:43:05;;;;;;;;;;;17.40;99.90;;;;;;5033413;28;19920;-77
2021/09/18 00:45:31;;;;;;;;;;;17.40;99.90;;;;;;5032199;28;19914;-77
2021/09/18 00:47:57;;;;;;;;;;;17.40;99.90;;;;;;5033290;28;19917;-77
2021/09/18 00:50:22;;;;;;;;;;;17.40;99.90;;;;;;5032172;28;19917;-77
2021/09/18 00:52:49;;;;;;;;;;;17.40;99.90;;;;;;5033199;28;19936;-77
2021/09/18 00:55:15;;;;;;;;;;;17.50;99.90;;;;;;5033565;28;19921;-77
2021/09/18 00:57:41;;;;;;;;;;;17.50;99.90;;;;;;5033323;28;19939;-77
2021/09/18 01:00:09;;;;;;;;;;;17.50;99.90;;;;;;5032041;28;19924;-77
2021/09/18 01:02:35;;;;;;;;;;;17.50;99.90;;;;;;5033238;28;19916;-77
2021/09/18 01:05:00;;;;;;;;;;;17.40;99.90;;;;;;5032164;28;19917;-77
2021/09/18 01:07:26;;;;;;;;;;;17.40;99.90;;;;;;5031987;28;20021;-77
2021/09/18 01:09:52;;;;;;;;;;;17.40;99.90;;;;;;5031966;28;20370;-77
2021/09/18 01:12:17;;;;;;;;;;;17.40;99.90;;;;;;5031880;28;19995;-77
2021/09/18 01:14:43;;;;;;;;;;;17.40;99.90;;;;;;5031845;28;20370;-77
2021/09/18 01:17:09;;;;;;;;;;;17.40;99.90;;;;;;5034746;28;19909;-77
2021/09/18 01:19:34;;;;;;;;;;;17.40;99.90;;;;;;5036989;28;19917;-77
2021/09/18 01:22:00;;;;;;;;;;;17.40;99.90;;;;;;5037138;28;19910;-77
2021/09/18 01:24:26;;;;;;;;;;;17.40;99.90;;;;;;5036838;28;19910;-77
2021/09/18 01:26:51;;;;;;;;;;;17.30;99.90;;;;;;5035492;28;19909;-77
2021/09/18 01:29:17;;;;;;;;;;;17.30;99.90;;;;;;5035286;28;20361;-77
2021/09/18 01:31:44;;;;;;;;;;;17.40;99.90;;;;;;5035343;28;19963;-77
2021/09/18 01:34:10;;;;;;;;;;;17.30;99.90;;;;;;5036476;28;19944;-77
2021/09/18 01:36:36;;;;;;;;;;;17.40;99.90;;;;;;5035313;28;19932;-77
2021/09/18 01:39:02;;;;;;;;;;;17.40;99.90;;;;;;5036449;28;20370;-77
2021/09/18 01:41:28;;;;;;;;;;;17.40;99.90;;;;;;5037010;28;19918;-77
2021/09/18 01:43:54;;;;;;;;;;;17.40;99.90;;;;;;5036413;28;20313;-77
2021/09/18 01:46:19;;;;;;;;;;;17.40;99.90;;;;;;5036884;28;20011;-77
2021/09/18 01:48:45;;;;;;;;;;;17.40;99.90;;;;;;5034928;28;19921;-77
2021/09/18 01:51:14;;;;;;;;;;;17.40;99.90;;;;;;5035176;28;20400;-77
2021/09/18 01:53:40;;;;;;;;;;;17.40;99.90;;;;;;5034873;28;19914;-77
2021/09/18 01:56:06;;;;;;;;;;;17.40;99.90;;;;;;5036574;28;19928;-77
2021/09/18 01:58:31;;;;;;;;;;;17.40;99.90;;;;;;5036224;28;19916;-77
2021/09/18 02:01:02;;;;;;;;;;;17.50;99.90;;;;;;5035038;28;20017;-77
2021/09/18 02:03:27;;;;;;;;;;;17.40;99.90;;;;;;5036380;28;19960;-77
2021/09/18 02:05:53;;;;;;;;;;;17.40;99.90;;;;;;5035001;28;19921;-77
2021/09/18 02:08:20;;;;;;;;;;;17.40;99.90;;;;;;5034727;28;20370;-77
2021/09/18 02:10:45;;;;;;;;;;;17.40;99.90;;;;;;5036419;28;19917;-77
2021/09/18 02:13:11;;;;;;;;;;;17.40;99.90;;;;;;5034623;28;19909;-77
2021/09/18 02:15:37;;;;;;;;;;;17.40;99.90;;;;;;5034434;28;19921;-77
2021/09/18 02:18:07;;;;;;;;;;;17.40;99.90;;;;;;5034546;28;19924;-77
2021/09/18 02:20:34;;;;;;;;;;;17.40;99.90;;;;;;5034617;28;19924;-77
2021/09/18 02:22:59;;;;;;;;;;;17.40;99.90;;;;;;5034423;28;19910;-77
2021/09/18 02:25:25;;;;;;;;;;;17.40;99.90;;;;;;5034537;28;20016;-77
2021/09/18 02:27:51;;;;;;;;;;;17.40;99.90;;;;;;5035104;28;20401;-77
2021/09/18 02:30:18;;;;;;;;;;;17.40;99.90;;;;;;5035792;28;19921;-78
2021/09/18 02:32:45;;;;;;;;;;;17.40;99.90;;;;;;5035603;28;19913;-77
2021/09/18 02:35:12;;;;;;;;;;;17.40;99.90;;;;;;5035848;28;20066;-77
2021/09/18 02:37:37;;;;;;;;;;;17.40;99.90;;;;;;5034384;28;19963;-77
2021/09/18 02:40:04;;;;;;;;;;;17.40;99.90;;;;;;5034421;28;19957;-77
2021/09/18 02:42:30;;;;;;;;;;;17.40;99.90;;;;;;5035348;28;19917;-77
2021/09/18 02:44:55;;;;;;;;;;;17.40;99.90;;;;;;5035119;28;19928;-77
2021/09/18 02:47:21;;;;;;;;;;;17.50;99.90;;;;;;5035222;28;20000;-77
2021/09/18 02:49:46;;;;;;;;;;;17.50;99.90;;;;;;5033763;28;19925;-77
2021/09/18 02:52:12;;;;;;;;;;;17.50;99.90;;;;;;5033840;28;20008;-77
2021/09/18 02:54:37;;;;;;;;;;;17.50;99.90;;;;;;5035082;28;20354;-77
2021/09/18 02:57:03;;;;;;;;;;;17.50;99.90;;;;;;5034997;28;19917;-77
2021/09/18 02:59:28;;;;;;;;;;;17.50;99.90;;;;;;5033742;28;19954;-77
2021/09/18 03:01:54;;;;;;;;;;;17.50;99.90;;;;;;5034909;28;20328;-77
2021/09/18 03:04:19;;;;;;;;;;;17.50;99.90;;;;;;5034866;28;19913;-77
2021/09/18 03:06:45;;;;;;;;;;;17.50;99.90;;;;;;5035038;28;19952;-77
2021/09/18 03:09:10;;;;;;;;;;;17.50;99.90;;;;;;5033426;28;20290;-77
2021/09/18 03:11:36;;;;;;;;;;;17.50;99.90;;;;;;5033475;28;19917;-77
2021/09/18 03:14:02;;;;;;;;;;;17.50;99.90;;;;;;5033476;28;19967;-77
2021/09/18 03:16:28;;;;;;;;;;;17.50;99.90;;;;;;5033467;28;19950;-77
2021/09/18 03:18:54;;;;;;;;;;;17.50;99.90;;;;;;5033316;28;19967;-77
2021/09/18 03:21:20;;;;;;;;;;;17.40;99.90;;;;;;5034645;28;20003;-77
2021/09/18 03:23:45;;;;;;;;;;;17.40;99.90;;;;;;5034496;28;19944;-77
2021/09/18 03:26:11;;;;;;;;;;;17.40;99.90;;;;;;5033118;28;19909;-77
2021/09/18 03:28:36;;;;;;;;;;;17.40;99.90;;;;;;5033320;28;19968;-78
2021/09/18 03:31:02;;;;;;;;;;;17.40;99.90;;;;;;5034590;28;20286;-77
2021/09/18 03:33:28;;;;;;;;;;;17.40;99.90;;;;;;5033136;28;19917;-77
2021/09/18 03:35:53;;;;;;;;;;;17.50;99.90;;;;;;5033046;28;19920;-77
2021/09/18 03:38:19;;;;;;;;;;;17.40;99.90;;;;;;5034956;28;20378;-77
2021/09/18 03:40:45;;;;;;;;;;;17.50;99.90;;;;;;5033179;28;19916;-77
2021/09/18 03:43:10;;;;;;;;;;;17.50;99.90;;;;;;5035213;28;19913;-77
2021/09/18 03:45:36;;;;;;;;;;;17.40;99.90;;;;;;5033877;28;19913;-78
2021/09/18 03:48:02;;;;;;;;;;;17.40;99.90;;;;;;5033181;28;20274;-77
2021/09/18 03:50:28;;;;;;;;;;;17.30;99.90;;;;;;5033371;28;20022;-78
2021/09/18 03:52:53;;;;;;;;;;;17.30;99.90;;;;;;5034478;28;20362;-78
2021/09/18 03:55:19;;;;;;;;;;;17.30;99.90;;;;;;5034358;28;20343;-77
2021/09/18 03:57:44;;;;;;;;;;;17.40;99.90;;;;;;5032970;28;19917;-77
2021/09/18 04:00:10;;;;;;;;;;;17.40;99.90;;;;;;5033947;28;20389;-77
2021/09/18 04:02:35;;;;;;;;;;;17.40;99.90;;;;;;5032858;28;19920;-77
2021/09/18 04:05:01;;;;;;;;;;;17.40;99.90;;;;;;5033762;28;19915;-77
2021/09/18 04:07:27;;;;;;;;;;;17.40;99.90;;;;;;5033147;28;20418;-77
2021/09/18 04:09:52;;;;;;;;;;;17.50;99.90;;;;;;5034011;28;19917;-77
2021/09/18 04:12:18;;;;;;;;;;;17.50;99.90;;;;;;5033010;28;19921;-78
2021/09/18 04:14:44;;;;;;;;;;;17.50;99.90;;;;;;5033254;28;19910;-77
2021/09/18 04:17:09;;;;;;;;;;;17.50;99.90;;;;;;5034899;28;19921;-77
2021/09/18 04:19:35;;;;;;;;;;;17.50;99.90;;;;;;5033343;28;20285;-78
2021/09/18 04:22:04;;;;;;;;;;;17.50;99.90;;;;;;5030925;28;19917;-77
2021/09/18 04:24:30;;;;;;;;;;;17.50;99.90;;;;;;5031801;28;19913;-78
2021/09/18 04:26:55;;;;;;;;;;;17.60;99.90;;;;;;5030911;28;19944;-77
2021/09/18 04:29:21;;;;;;;;;;;17.60;99.90;;;;;;5030345;28;20318;-77
2021/09/18 04:31:46;;;;;;;;;;;17.60;99.90;;;;;;5031157;28;20040;-77
2021/09/18 04:34:12;;;;;;;;;;;17.70;99.90;;;;;;5029861;28;19909;-77
2021/09/18 04:36:38;;;;;;;;;;;17.80;99.90;;;;;;5032009;28;19917;-77
2021/09/18 04:39:03;;;;;;;;;;;17.80;99.90;;;;;;5030286;28;19928;-77
2021/09/18 04:41:29;;;;;;;;;;;17.80;99.90;;;;;;5031487;28;20085;-77
2021/09/18 04:43:55;;;;;;;;;;;17.80;99.90;;;;;;5031700;28;20003;-77
2021/09/18 04:46:21;;;;;;;;;;;17.90;99.90;;;;;;5030030;28;19959;-77
2021/09/18 04:48:47;;;;;;;;;;;17.90;99.90;;;;;;5031450;28;20384;-77
2021/09/18 04:51:12;;;;;;;;;;;17.90;99.90;;;;;;5033265;28;20236;-77
2021/09/18 04:53:38;;;;;;;;;;;18.00;99.90;;;;;;5035150;28;19948;-77
2021/09/18 04:56:04;;;;;;;;;;;18.00;99.90;;;;;;5039387;28;19924;-78
2021/09/18 04:58:30;;;;;;;;;;;18.10;99.90;;;;;;5036265;28;19921;-78
2021/09/18 05:00:56;;;;;;;;;;;18.10;99.90;;;;;;5037400;28;20008;-78
2021/09/18 05:03:22;;;;;;;;;;;18.10;99.90;;;;;;5037885;28;19917;-78
2021/09/18 05:05:47;;;;;;;;;;;18.20;99.90;;;;;;5037091;28;19916;-78
2021/09/18 05:08:14;;;;;;;;;;;18.30;99.90;;;;;;5035726;28;19925;-78
2021/09/18 05:10:39;;;;;;;;;;;18.30;99.90;;;;;;5037095;28;20370;-78
2021/09/18 05:13:05;;;;;;;;;;;18.40;99.90;;;;;;5036116;28;19932;-77
2021/09/18 05:15:30;;;;;;;;;;;18.40;99.90;;;;;;5036312;28;19909;-78
2021/09/18 05:17:56;;;;;;;;;;;18.50;99.90;;;;;;5052691;28;19917;-77
2021/09/18 05:20:21;;;;;;;;;;;18.60;99.90;;;;;;5035577;28;20252;-78
2021/09/18 05:22:47;;;;;;;;;;;18.70;99.90;;;;;;5037107;28;19924;-77
2021/09/18 05:25:12;;;;;;;;;;;18.70;99.90;;;;;;5036726;28;19909;-77
2021/09/18 05:27:38;;;;;;;;;;;18.70;99.90;;;;;;5036510;28;19917;-78
2021/09/18 05:30:04;;;;;;;;;;;18.80;99.90;;;;;;5036657;28;20297;-77
2021/09/18 05:32:30;;;;;;;;;;;18.80;99.90;;;;;;5035628;28;20427;-78
2021/09/18 05:34:56;;;;;;;;;;;18.80;99.90;;;;;;5036631;28;19913;-77
2021/09/18 05:37:21;;;;;;;;;;;18.90;99.90;;;;;;5036107;28;19917;-78
2021/09/18 05:39:47;;;;;;;;;;;18.90;99.90;;;;;;5036840;28;19913;-78
2021/09/18 05:42:12;;;;;;;;;;;18.90;99.90;;;;;;5035114;28;19924;-77
2021/09/18 05:44:38;;;;;;;;;;;18.90;99.90;;;;;;5036571;28;19909;-78
2021/09/18 05:47:03;;;;;;;;;;;18.90;99.90;;;;;;5051914;28;20014;-78
2021/09/18 05:49:29;;;;;;;;;;;19.00;99.90;;;;;;5035328;28;19921;-78
2021/09/18 05:51:55;;;;;;;;;;;19.00;99.90;;;;;;5036487;28;19921;-77
2021/09/18 05:54:21;;;;;;;;;;;19.00;99.90;;;;;;5036026;28;20003;-77
2021/09/18 05:56:46;;;;;;;;;;;19.00;99.90;;;;;;5036252;28;19917;-78
2021/09/18 05:59:12;;;;;;;;;;;19.00;99.90;;;;;;5036116;28;20273;-77
2021/09/18 06:01:37;;;;;;;;;;;19.00;99.90;;;;;;5036038;28;20003;-79
2021/09/18 06:04:03;;;;;;;;;;;19.00;99.90;;;;;;5034771;28;19964;-76
2021/09/18 06:06:28;;;;;;;;;;;19.00;99.90;;;;;;5036631;28;19917;-77
2021/09/18 06:08:54;;;;;;;;;;;19.00;99.90;;;;;;5036039;28;19972;-75
2021/09/18 06:11:20;;;;;;;;;;;18.90;99.90;;;;;;5036132;28;20374;-75
2021/09/18 06:13:45;;;;;;;;;;;19.00;99.90;;;;;;5034064;28;19909;-74
2021/09/18 06:16:11;;;;;;;;;;;19.10;99.90;;;;;;5035988;28;19909;-75
2021/09/18 06:18:36;;;;;;;;;;;19.20;99.90;;;;;;5036142;28;19909;-76
2021/09/18 06:21:04;;;;;;;;;;;19.20;99.90;;;;;;5036688;28;19920;-76
2021/09/18 06:23:30;;;;;;;;;;;19.20;99.90;;;;;;5035906;28;20385;-75
2021/09/18 06:25:55;;;;;;;;;;;19.20;99.90;;;;;;5035509;28;19917;-75
2021/09/18 06:28:21;;;;;;;;;;;19.30;99.90;;;;;;5036655;28;20031;-75
2021/09/18 06:30:47;;;;;;;;;;;19.40;99.90;;;;;;5035572;28;19920;-76
2021/09/18 06:33:12;;;;;;;;;;;19.40;99.90;;;;;;5035879;28;20404;-76
2021/09/18 06:35:38;;;;;;;;;;;19.60;99.90;;;;;;5033894;28;19913;-76
2021/09/18 06:38:04;;;;;;;;;;;19.60;99.90;;;;;;5035989;28;19913;-76
2021/09/18 06:40:29;;;;;;;;;;;19.60;99.90;;;;;;5036005;28;19975;-76
2021/09/18 06:42:55;;;;;;;;;;;19.60;99.90;;;;;;5035999;28;19948;-75
2021/09/18 06:45:20;;;;;;;;;;;19.60;99.90;;;;;;5035342;28;19963;-76
2021/09/18 06:47:46;;;;;;;;;;;19.70;99.90;;;;;;5035585;28;20382;-75
2021/09/18 06:50:12;;;;;;;;;;;19.70;99.90;;;;;;5034949;28;20382;-74
2021/09/18 06:52:37;;;;;;;;;;;19.70;99.90;;;;;;5033906;28;19921;-73
2021/09/18 06:55:03;;;;;;;;;;;19.80;99.90;;;;;;5036908;28;19917;-74
2021/09/18 06:57:29;;;;;;;;;;;19.80;99.90;;;;;;5035120;28;19917;-74
2021/09/18 06:59:54;;;;;;;;;;;19.80;99.90;;;;;;5034496;28;20054;-74
2021/09/18 07:02:20;;;;;;;;;;;19.70;99.90;;;;;;5035817;28;19921;-74
2021/09/18 07:04:45;;;;;;;;;;;19.70;99.90;;;;;;5034918;28;19910;-77
2021/09/18 07:07:11;;;;;;;;;;;19.70;99.90;;;;;;5034373;28;19918;-77
2021/09/18 07:09:36;;;;;;;;;;;19.70;99.90;;;;;;5035726;28;19917;-75
2021/09/18 07:12:03;;;;;;;;;;;19.70;99.90;;;;;;5035832;28;19940;-76
2021/09/18 07:14:28;;;;;;;;;;;19.60;99.90;;;;;;5035849;28;20421;-76
2021/09/18 07:16:54;;;;;;;;;;;19.60;99.90;;;;;;5035520;28;19955;-75
2021/09/18 07:19:20;;;;;;;;;;;19.60;99.90;;;;;;5033742;28;19920;-76
2021/09/18 07:21:45;;;;;;;;;;;19.60;99.90;;;;;;5034314;28;20370;-76
2021/09/18 07:24:11;;;;;;;;;;;19.60;99.90;;;;;;5035434;28;20355;-78
2021/09/18 07:26:36;;;;;;;;;;;19.50;99.90;;;;;;5035877;28;20374;-76
2021/09/18 07:29:03;;;;;;;;;;;19.50;99.90;;;;;;5034829;28;19917;-78
2021/09/18 07:31:29;;;;;;;;;;;19.50;99.90;;;;;;5033670;28;19967;-77
2021/09/18 07:33:54;;;;;;;;;;;19.40;99.90;;;;;;5034413;28;19913;-78
2021/09/18 07:36:20;;;;;;;;;;;19.40;99.90;;;;;;5034038;28;19913;-78
2021/09/18 07:38:45;;;;;;;;;;;19.40;99.90;;;;;;5034939;28;19951;-76
2021/09/18 07:41:11;;;;;;;;;;;19.40;99.90;;;;;;5035004;28;20004;-77
2021/09/18 07:43:37;;;;;;;;;;;19.40;99.90;;;;;;5034970;28;20296;-75
2021/09/18 07:46:02;;;;;;;;;;;19.30;99.90;;;;;;5033496;28;19909;-75
2021/09/18 07:48:29;;;;;;;;;;;19.20;99.90;;;;;;5034920;28;19925;-77
2021/09/18 07:50:54;;;;;;;;;;;19.20;99.90;;;;;;5033380;28;19909;-75
2021/09/18 07:53:20;;;;;;;;;;;19.20;99.90;;;;;;5033615;28;19994;-76
2021/09/18 07:55:45;;;;;;;;;;;19.20;99.90;;;;;;5034984;28;19957;-76
2021/09/18 07:58:11;;;;;;;;;;;19.20;99.90;;;;;;5035242;28;19917;-76
2021/09/18 08:00:37;;;;;;;;;;;19.20;99.90;;;;;;5034212;28;19916;-79
2021/09/18 08:03:02;;;;;;;;;;;19.30;99.90;;;;;;5035330;28;20392;-78
2021/09/18 08:05:28;;;;;;;;;;;19.30;99.90;;;;;;5031248;28;19909;-78
2021/09/18 08:07:54;;;;;;;;;;;19.30;99.90;;;;;;5034095;28;19925;-78
2021/09/18 08:10:20;;;;;;;;;;;19.30;99.90;;;;;;5031811;28;19957;-78
2021/09/18 08:12:48;;;;;;;;;;;19.30;99.90;;;;;;5034603;28;19971;-79
2021/09/18 08:15:15;;;;;;;;;;;19.30;99.90;;;;;;5035631;28;19909;-79
2021/09/18 08:17:41;;;;;;;;;;;19.40;99.90;;;;;;5035287;28;19928;-80
2021/09/18 08:20:07;;;;;;;;;;;19.40;99.90;;;;;;5038771;28;19909;-79
2021/09/18 08:22:33;;;;;;;;;;;19.40;99.90;;;;;;5036570;28;19917;-79
2021/09/18 08:24:58;;;;;;;;;;;19.30;99.90;;;;;;5032993;28;19909;-78
2021/09/18 08:27:24;;;;;;;;;;;19.40;99.90;;;;;;5033521;28;19929;-78
2021/09/18 08:29:49;;;;;;;;;;;19.40;99.90;;;;;;5034262;28;19967;-78
2021/09/18 08:32:15;;;;;;;;;;;19.30;99.90;;;;;;5031107;28;19999;-79
2021/09/18 08:34:40;;;;;;;;;;;19.30;99.90;;;;;;5031426;28;19909;-78
2021/09/18 08:37:06;;;;;;;;;;;19.20;99.90;;;;;;5030758;28;19952;-78
2021/09/18 08:39:35;;;;;;;;;;;19.20;99.90;;;;;;5030706;28;20422;-78
2021/09/18 08:42:02;;;;;;;;;;;19.20;99.90;;;;;;5030935;28;20437;-79
2021/09/18 08:44:27;;;;;;;;;;;19.00;99.90;;;;;;5031519;28;20386;-79
2021/09/18 08:46:53;;;;;;;;;;;19.00;99.90;;;;;;5032836;28;19917;-79
2021/09/18 08:49:19;;;;;;;;;;;18.90;99.90;;;;;;5032849;28;19917;-79
2021/09/18 08:51:44;;;;;;;;;;;18.80;99.90;;;;;;5032668;28;19940;-79
2021/09/18 08:54:10;;;;;;;;;;;18.80;99.90;;;;;;5030753;28;19978;-78
2021/09/18 08:56:38;;;;;;;;;;;18.70;99.90;;;;;;5033054;28;20285;-78
2021/09/18 08:59:04;;;;;;;;;;;18.60;99.90;;;;;;5032089;28;20325;-78
2021/09/18 09:01:31;;;;;;;;;;;18.60;99.90;;;;;;5032478;28;19917;-79
2021/09/18 09:03:58;;;;;;;;;;;18.60;99.90;;;;;;5035714;28;19916;-80
2021/09/18 09:06:24;;;;;;;;;;;18.60;99.90;;;;;;5035649;28;20278;-79
2021/09/18 09:08:56;;;;;;;;;;;18.60;99.90;;;;;;5034391;28;19924;-80
2021/09/18 09:11:23;;;;;;;;;;;18.70;99.90;;;;;;5035573;28;20432;-80
2021/09/18 09:13:55;;;;;;;;;;;18.70;99.90;;;;;;5034980;28;19945;-79
2021/09/18 09:16:20;;;;;;;;;;;18.80;99.90;;;;;;5036479;28;19913;-80
2021/09/18 09:18:47;;;;;;;;;;;18.90;99.90;;;;;;5037994;28;20259;-80
2021/09/18 09:21:23;;;;;;;;;;;18.80;99.90;;;;;;5034200;28;19920;-80
2021/09/18 09:24:05;;;;;;;;;;;18.90;99.90;;;;;;5034931;28;19913;-80
2021/09/18 09:26:32;;;;;;;;;;;18.90;99.90;;;;;;5035624;28;19967;-79
2021/09/18 09:28:58;;;;;;;;;;;18.90;99.90;;;;;;5032761;28;20282;-79
2021/09/18 09:31:26;;;;;;;;;;;18.90;99.90;;;;;;5032945;28;20228;-79
2021/09/18 09:34:16;;;;;;;;;;;19.00;99.90;;;;;;5031367;28;19913;-79
2021/09/18 09:36:43;;;;;;;;;;;19.00;99.90;;;;;;5033031;28;19913;-80
2021/09/18 09:39:10;;;;;;;;;;;19.10;99.90;;;;;;5037865;28;19913;-80
2021/09/18 09:41:46;;;;;;;;;;;19.20;99.90;;;;;;5035826;28;19917;-79
2021/09/18 09:44:14;;;;;;;;;;;19.20;99.90;;;;;;5036423;28;19940;-79
2021/09/18 09:46:40;;;;;;;;;;;19.30;99.90;;;;;;5035642;28;20132;-79
2021/09/18 09:49:07;;;;;;;;;;;19.30;99.90;;;;;;5035264;28;19921;-79
2021/09/18 09:51:33;;;;;;;;;;;19.40;99.90;;;;;;5040156;28;19936;-79
2021/09/18 09:54:15;;;;;;;;;;;19.40;99.90;;;;;;5037801;28;19913;-79
2021/09/18 09:56:41;;;;;;;;;;;19.40;99.90;;;;;;5038873;28;20281;-80
2021/09/18 09:59:07;;;;;;;;;;;19.40;99.90;;;;;;5037281;28;19920;-79
2021/09/18 10:01:33;;;;;;;;;;;19.30;99.90;;;;;;5038586;28;19917;-80
2021/09/18 10:03:58;;;;;;;;;;;19.20;99.90;;;;;;5054484;28;19909;-79
2021/09/18 10:06:25;;;;;;;;;;;19.10;99.90;;;;;;5038576;28;19909;-80
2021/09/18 10:08:51;;;;;;;;;;;19.00;99.90;;;;;;5037291;28;19921;-80
2021/09/18 10:11:20;;;;;;;;;;;18.90;99.90;;;;;;5036802;28;19959;-80
2021/09/18 10:13:46;;;;;;;;;;;18.80;99.90;;;;;;5039986;28;19909;-80
2021/09/18 10:16:13;;;;;;;;;;;18.80;99.90;;;;;;5036221;28;19909;-77
2021/09/18 10:18:39;;;;;;;;;;;18.80;99.90;;;;;;5036409;28;19968;-81
2021/09/18 10:23:49;;;;;;;;;;;18.70;99.90;;;;;;5038734;28;20412;-78
2021/09/18 10:26:15;;;;;;;;;;;18.70;99.90;;;;;;5034430;28;19909;-78
2021/09/18 10:28:42;;;;;;;;;;;18.70;99.90;;;;;;5035506;28;19917;-78
2021/09/18 10:31:15;;;;;;;;;;;18.70;99.90;;;;;;5038514;28;20444;-81
2021/09/18 10:33:46;;;;;;;;;;;18.70;99.90;;;;;;5036744;28;20002;-79
2021/09/18 10:36:40;;;;;;;;;;;18.50;99.90;;;;;;5037969;28;20266;-79
2021/09/18 10:39:10;;;;;;;;;;;18.40;99.90;;;;;;5037833;28;19910;-79
2021/09/18 10:41:44;;;;;;;;;;;18.40;99.90;;;;;;5040099;28;19918;-80
2021/09/18 10:44:09;;;;;;;;;;;18.30;99.90;;;;;;5037926;28;20003;-79
2021/09/18 10:46:38;;;;;;;;;;;18.30;99.90;;;;;;5038105;28;20358;-79
2021/09/18 10:49:04;;;;;;;;;;;18.30;99.90;;;;;;5037354;28;19917;-79
2021/09/18 10:51:37;;;;;;;;;;;18.30;99.90;;;;;;5054647;28;20363;-79
2021/09/18 10:54:04;;;;;;;;;;;18.20;99.90;;;;;;5037867;28;19909;-79
2021/09/18 10:56:48;;;;;;;;;;;18.30;99.90;;;;;;5037677;28;19917;-78
2021/09/18 10:59:14;;;;;;;;;;;18.30;99.90;;;;;;5033654;28;20366;-78
2021/09/18 11:01:39;;;;;;;;;;;18.20;99.90;;;;;;5035001;28;19928;-78
2021/09/18 11:04:25;;;;;;;;;;;18.10;99.90;;;;;;5033704;28;19955;-77
2021/09/18 11:06:50;;;;;;;;;;;18.10;99.90;;;;;;5033233;28;20297;-77
2021/09/18 11:09:36;;;;;;;;;;;18.10;99.90;;;;;;5048699;28;19917;-78
2021/09/18 11:12:15;;;;;;;;;;;18.10;99.90;;;;;;5033402;28;19955;-77
2021/09/18 11:14:40;;;;;;;;;;;18.10;99.90;;;;;;5034918;28;20358;-77
2021/09/18 11:17:24;;;;;;;;;;;18.00;99.90;;;;;;5034607;28;19929;-79
2021/09/18 11:19:54;;;;;;;;;;;17.90;99.90;;;;;;5032366;28;20377;-78
2021/09/18 11:22:20;;;;;;;;;;;17.90;99.90;;;;;;5032817;28;19963;-77
2021/09/18 11:24:45;;;;;;;;;;;17.90;99.90;;;;;;5031172;28;19913;-79
2021/09/18 11:27:11;;;;;;;;;;;17.80;99.90;;;;;;5032734;28;19918;-77
2021/09/18 11:29:38;;;;;;;;;;;17.80;99.90;;;;;;5032582;28;20500;-77
2021/09/18 11:32:05;;;;;;;;;;;17.70;99.90;;;;;;5031498;28;19917;-78
2021/09/18 11:34:41;;;;;;;;;;;17.60;99.90;;;;;;5032990;28;19917;-78
2021/09/18 11:37:08;;;;;;;;;;;17.50;99.90;;;;;;5032910;28;19914;-77
2021/09/18 11:39:35;;;;;;;;;;;17.40;99.90;;;;;;5033961;28;20402;-78
2021/09/18 11:42:13;;;;;;;;;;;17.40;99.90;;;;;;5036854;28;19917;-79
2021/09/18 11:44:39;;;;;;;;;;;17.40;99.90;;;;;;5035187;28;19956;-78
2021/09/18 11:47:04;;;;;;;;;;;17.40;99.90;;;;;;5034818;28;19913;-78
2021/09/18 11:49:30;;;;;;;;;;;17.50;99.90;;;;;;5034123;28;19932;-78
2021/09/18 11:52:03;;;;;;;;;;;17.50;99.90;;;;;;5035971;28;20016;-78
2021/09/18 11:54:30;;;;;;;;;;;17.60;99.90;;;;;;5038141;28;19916;-79
2021/09/18 11:57:09;;;;;;;;;;;17.60;99.90;;;;;;5040507;28;20571;-78
2021/09/18 11:59:34;;;;;;;;;;;17.60;99.90;;;;;;5035803;28;19915;-78
2021/09/18 12:02:00;;;;;;;;;;;17.60;99.90;;;;;;5036635;28;20012;-79
2021/09/18 12:04:36;;;;;;;;;;;17.60;99.90;;;;;;5037362;28;20416;-79
2021/09/18 12:07:02;;;;;;;;;;;17.70;99.90;;;;;;5037905;28;19971;-78
2021/09/18 12:09:27;;;;;;;;;;;17.70;99.90;;;;;;5038298;28;19921;-78
2021/09/18 12:11:53;;;;;;;;;;;17.80;99.90;;;;;;5036601;28;19917;-78
2021/09/18 12:14:28;;;;;;;;;;;17.80;99.90;;;;;;5038954;28;19916;-78
2021/09/18 12:16:53;;;;;;;;;;;17.80;99.90;;;;;;5037480;28;19917;-78
2021/09/18 12:19:19;;;;;;;;;;;17.80;99.90;;;;;;5039334;28;19945;-78
2021/09/18 12:21:47;;;;;;;;;;;17.80;99.90;;;;;;5038426;28;21811;-78
2021/09/18 12:24:12;;;;;;;;;;;17.90;99.90;;;;;;5038854;28;19913;-79
2021/09/18 12:26:40;;;;;;;;;;;17.90;99.90;;;;;;5034120;28;19917;-79
2021/09/18 12:29:10;;;;;;;;;;;18.00;99.90;;;;;;5040470;28;20329;-78
2021/09/18 12:31:36;;;;;;;;;;;18.10;99.90;;;;;;5040203;28;19924;-78
2021/09/18 12:34:06;;;;;;;;;;;18.10;99.90;;;;;;5041289;28;19913;-78
2021/09/18 12:36:32;;;;;;;;;;;18.10;99.90;;;;;;5033735;28;20266;-79
2021/09/18 12:38:57;;;;;;;;;;;18.10;99.90;;;;;;5033285;28;19924;-78
2021/09/18 12:41:29;;;;;;;;;;;18.10;99.90;;;;;;5033718;28;19913;-78
2021/09/18 12:43:55;;;;;;;;;;;18.00;99.90;;;;;;5032737;28;20007;-78
2021/09/18 12:46:21;;;;;;;;;;;18.00;99.90;;;;;;5034310;28;19913;-78
2021/09/18 12:48:54;;;;;;;;;;;18.00;99.90;;;;;;5035065;28;19921;-78
2021/09/18 12:51:20;;;;;;;;;;;18.00;99.90;;;;;;5034742;28;19931;-79
2021/09/18 12:53:47;;;;;;;;;;;18.10;99.90;;;;;;5033688;28;20394;-79
2021/09/18 12:56:28;;;;;;;;;;;18.10;99.90;;;;;;5034012;28;20006;-78
2021/09/18 12:58:58;;;;;;;;;;;18.10;99.90;;;;;;5035470;28;19913;-78
2021/09/18 13:01:43;;;;;;;;;;;18.20;99.90;;;;;;5034267;28;20003;-78
2021/09/18 13:04:16;;;;;;;;;;;18.20;99.90;;;;;;5032412;28;19913;-79
2021/09/18 13:07:01;;;;;;;;;;;18.20;99.90;;;;;;5033940;28;19913;-78
2021/09/18 13:09:27;;;;;;;;;;;18.20;99.90;;;;;;5033421;28;20286;-78
2021/09/18 13:11:55;;;;;;;;;;;18.10;99.90;;;;;;5035020;28;19913;-78
2021/09/18 13:14:24;;;;;;;;;;;18.10;99.90;;;;;;5037362;28;19924;-78
2021/09/18 13:16:53;;;;;;;;;;;18.00;99.90;;;;;;5041161;28;19959;-79
2021/09/18 13:19:18;;;;;;;;;;;18.00;99.90;;;;;;5041659;28;19920;-80
2021/09/18 13:21:44;;;;;;;;;;;18.10;99.90;;;;;;5041602;28;20425;-79
2021/09/18 13:24:10;;;;;;;;;;;18.10;99.90;;;;;;5058028;28;20330;-79
2021/09/18 13:26:35;;;;;;;;;;;18.10;99.90;;;;;;5040517;28;19914;-79
2021/09/18 13:29:02;;;;;;;;;;;18.10;99.90;;;;;;5040289;28;19952;-79
2021/09/18 13:31:29;;;;;;;;;;;18.10;99.90;;;;;;5040996;28;19966;-79
2021/09/18 13:33:54;;;;;;;;;;;18.10;99.90;;;;;;5040911;28;19964;-79
2021/09/18 13:36:20;;;;;;;;;;;18.10;99.90;;;;;;5042209;28;19968;-79
2021/09/18 13:38:45;;;;;;;;;;;18.10;99.90;;;;;;5040456;28;20378;-79
2021/09/18 13:41:11;;;;;;;;;;;18.10;99.90;;;;;;5040013;28;20256;-79
2021/09/18 13:43:37;;;;;;;;;;;18.10;99.90;;;;;;5040307;28;20306;-80
2021/09/18 13:46:02;;;;;;;;;;;18.20;99.90;;;;;;5040414;28;20392;-79
2021/09/18 13:48:28;;;;;;;;;;;18.30;99.90;;;;;;5041628;28;19921;-80
2021/09/18 13:50:53;;;;;;;;;;;18.50;99.90;;;;;;5038194;28;19913;-79
2021/09/18 13:53:19;;;;;;;;;;;18.60;99.90;;;;;;5037611;28;19924;-79
2021/09/18 13:55:55;;;;;;;;;;;18.90;99.90;;;;;;5037930;28;19924;-79
2021/09/18 13:58:22;;;;;;;;;;;19.00;99.90;;;;;;5038544;28;19921;-79
2021/09/18 14:00:47;;;;;;;;;;;19.10;99.90;;;;;;5037079;28;19916;-79
2021/09/18 14:03:13;;;;;;;;;;;19.10;99.90;;;;;;5040313;28;19917;-79
2021/09/18 14:05:38;;;;;;;;;;;19.00;99.90;;;;;;5040040;28;19909;-79
2021/09/18 14:08:04;;;;;;;;;;;18.90;99.90;;;;;;5039086;28;20334;-78
2021/09/18 14:10:29;;;;;;;;;;;18.80;99.90;;;;;;5041641;28;19936;-79
2021/09/18 14:12:55;;;;;;;;;;;18.80;99.90;;;;;;5041538;28;19917;-79
2021/09/18 14:15:20;;;;;;;;;;;18.60;99.90;;;;;;5037248;28;19944;-79
2021/09/18 14:17:46;;;;;;;;;;;18.60;99.90;;;;;;5037762;28;19917;-79